createdAt,value
2022-08-30T00:01:43.453Z,97244.28
2022-08-30T00:04:10.136Z,97264.19
2022-08-30T00:06:36.841Z,97259.09
2022-08-30T00:09:03.752Z,97235.66
2022-08-30T00:11:30.414Z,97248.44
2022-08-30T00:13:57.176Z,97251.56
2022-08-30T00:16:24.518Z,97259.66
2022-08-30T00:18:51.200Z,97235.38
2022-08-30T00:21:18.983Z,97260.44
2022-08-30T00:23:45.608Z,97261.28
2022-08-30T00:26:12.234Z,97269.09
2022-08-30T00:28:39.331Z,97248.97
2022-08-30T00:31:06.204Z,97254.22
2022-08-30T00:33:32.940Z,97241.84
2022-08-30T00:36:00.028Z,97255.09
2022-08-30T00:38:26.646Z,97263.56
2022-08-30T00:40:53.316Z,97251.91
2022-08-30T00:43:22.349Z,97263.50
2022-08-30T00:45:50.947Z,97237.00
2022-08-30T00:48:17.660Z,97246.22
2022-08-30T00:50:53.232Z,97270.25
2022-08-30T00:53:21.999Z,97237.53
2022-08-30T00:55:49.101Z,97243.34
2022-08-30T00:58:18.286Z,97247.78
2022-08-30T01:00:44.975Z,97258.94
2022-08-30T01:03:11.716Z,97256.22
2022-08-30T01:05:38.454Z,97232.81
2022-08-30T01:08:05.597Z,97253.88
2022-08-30T01:10:34.201Z,97240.56
2022-08-30T01:13:00.916Z,97215.63
2022-08-30T01:15:27.611Z,97240.53
2022-08-30T01:17:54.358Z,97238.44
2022-08-30T01:20:28.503Z,97222.69
2022-08-30T01:22:55.057Z,97243.09
2022-08-30T01:25:28.198Z,97252.94
2022-08-30T01:28:03.885Z,97243.91
2022-08-30T01:30:31.204Z,97237.88
2022-08-30T01:32:59.757Z,97242.50
2022-08-30T01:35:26.941Z,97260.63
2022-08-30T01:37:53.592Z,97272.91
2022-08-30T01:40:20.527Z,97271.47
2022-08-30T01:42:47.455Z,97218.34
2022-08-30T01:45:14.257Z,97244.50
2022-08-30T01:47:40.906Z,97259.81
2022-08-30T01:50:08.009Z,97245.28
2022-08-30T01:52:34.835Z,97268.75
2022-08-30T01:55:01.868Z,97246.28
2022-08-30T01:57:29.187Z,97250.06
2022-08-30T01:59:55.817Z,97233.09
2022-08-30T02:02:24.616Z,97236.78
2022-08-30T02:04:51.562Z,97231.88
2022-08-30T02:07:18.148Z,97247.03
2022-08-30T02:09:46.149Z,97246.84
2022-08-30T02:12:12.940Z,97255.94
2022-08-30T02:14:39.753Z,97244.53
2022-08-30T02:17:07.299Z,97236.53
2022-08-30T02:19:33.908Z,97236.75
2022-08-30T02:22:00.642Z,97240.78
2022-08-30T02:24:27.399Z,97218.91
2022-08-30T02:26:54.084Z,97268.63
2022-08-30T02:29:21.793Z,97265.63
2022-08-30T02:31:48.552Z,97263.22
2022-08-30T02:34:15.767Z,97265.75
2022-08-30T02:36:42.558Z,97248.19
2022-08-30T02:39:09.915Z,97219.53
2022-08-30T02:41:36.561Z,97238.16
2022-08-30T02:44:03.285Z,97246.28
2022-08-30T02:46:33.470Z,97234.97
2022-08-30T02:49:13.101Z,97221.13
2022-08-30T02:51:48.715Z,97239.28
2022-08-30T02:54:15.473Z,97257.63
2022-08-30T02:56:42.190Z,97250.81
2022-08-30T02:59:08.859Z,97231.38
2022-08-30T03:01:35.652Z,97240.88
2022-08-30T03:04:02.433Z,97232.75
2022-08-30T03:06:29.129Z,97242.78
2022-08-30T03:08:55.893Z,97250.09
2022-08-30T03:11:22.621Z,97257.03
2022-08-30T03:13:50.417Z,97239.34
2022-08-30T03:16:17.085Z,97245.59
2022-08-30T03:18:43.764Z,97245.22
2022-08-30T03:21:11.634Z,97263.13
2022-08-30T03:23:41.224Z,97259.81
2022-08-30T03:26:08.697Z,97264.44
2022-08-30T03:28:35.397Z,97265.03
2022-08-30T03:31:02.480Z,97265.03
2022-08-30T03:33:29.234Z,97274.16
2022-08-30T03:35:55.947Z,97263.75
2022-08-30T03:38:22.589Z,97260.03
2022-08-30T03:40:49.302Z,97269.03
2022-08-30T03:43:15.999Z,97283.09
2022-08-30T03:45:42.952Z,97252.22
2022-08-30T03:48:09.649Z,97269.25
2022-08-30T03:50:36.469Z,97271.56
2022-08-30T03:53:03.177Z,97233.00
2022-08-30T03:55:29.950Z,97256.44
2022-08-30T03:57:56.877Z,97248.13
2022-08-30T04:00:24.675Z,97258.34
2022-08-30T04:02:51.350Z,97263.22
2022-08-30T04:05:19.967Z,97271.53
2022-08-30T04:07:46.655Z,97284.78
2022-08-30T04:10:13.376Z,97276.13
2022-08-30T04:12:40.060Z,97260.81
2022-08-30T04:15:07.166Z,97275.34
2022-08-30T04:17:33.816Z,97262.41
2022-08-30T04:20:00.475Z,97268.22
2022-08-30T04:22:27.117Z,97265.91
2022-08-30T04:24:54.207Z,97260.28
2022-08-30T04:27:20.922Z,97280.25
2022-08-30T04:29:47.584Z,97295.47
2022-08-30T04:32:14.694Z,97310.88
2022-08-30T04:34:41.315Z,97284.03
2022-08-30T04:37:09.852Z,97290.47
2022-08-30T04:39:36.661Z,97272.44
2022-08-30T04:42:03.770Z,97288.25
2022-08-30T04:44:31.813Z,97278.34
2022-08-30T04:46:58.605Z,97283.44
2022-08-30T04:49:25.200Z,97284.84
2022-08-30T04:51:51.909Z,97297.50
2022-08-30T04:54:18.567Z,97313.03
2022-08-30T04:56:45.203Z,97313.72
2022-08-30T04:59:11.922Z,97312.72
2022-08-30T05:01:45.082Z,97310.84
2022-08-30T05:04:12.760Z,97324.97
2022-08-30T05:06:39.428Z,97305.03
2022-08-30T05:09:06.151Z,97310.13
2022-08-30T05:11:32.832Z,97297.09
2022-08-30T05:13:59.539Z,97334.34
2022-08-30T05:16:26.360Z,97311.50
2022-08-30T05:18:53.101Z,97313.53
2022-08-30T05:21:21.432Z,97328.16
2022-08-30T05:23:48.195Z,97313.13
2022-08-30T05:26:20.035Z,97353.66
2022-08-30T05:28:46.938Z,97326.59
2022-08-30T05:31:27.323Z,97314.06
2022-08-30T05:33:54.159Z,97341.81
2022-08-30T05:36:22.401Z,97317.06
2022-08-30T05:38:49.058Z,97326.09
2022-08-30T05:41:15.877Z,97296.72
2022-08-30T05:43:42.546Z,97319.16
2022-08-30T05:46:10.752Z,97325.16
2022-08-30T05:48:37.750Z,97299.47
2022-08-30T05:51:11.198Z,97330.38
2022-08-30T05:53:38.672Z,97314.25
2022-08-30T05:56:06.749Z,97313.34
2022-08-30T05:58:33.439Z,97299.84
2022-08-30T06:01:00.186Z,97318.09
2022-08-30T06:03:27.055Z,97315.13
2022-08-30T06:05:53.872Z,97335.53
2022-08-30T06:08:21.220Z,97336.00
2022-08-30T06:10:48.052Z,97326.03
2022-08-30T06:13:14.806Z,97313.63
2022-08-30T06:15:41.625Z,97321.16
2022-08-30T06:18:08.357Z,97301.25
2022-08-30T06:20:41.426Z,97306.56
2022-08-30T06:23:08.179Z,97335.13
2022-08-30T06:25:42.015Z,97303.09
2022-08-30T06:28:09.156Z,97321.22
2022-08-30T06:30:35.935Z,97349.59
2022-08-30T06:33:02.860Z,97334.63
2022-08-30T06:35:32.740Z,97346.81
2022-08-30T06:38:02.394Z,97341.09
2022-08-30T06:40:29.195Z,97344.47
2022-08-30T06:42:55.993Z,97338.59
2022-08-30T06:45:22.670Z,97334.13
2022-08-30T06:47:49.437Z,97339.41
2022-08-30T06:50:17.188Z,97345.84
2022-08-30T06:52:44.701Z,97338.63
2022-08-30T06:55:12.625Z,97318.00
2022-08-30T06:57:39.320Z,97323.13
2022-08-30T07:00:07.446Z,97344.25
2022-08-30T07:02:34.512Z,97347.34
2022-08-30T07:05:01.249Z,97337.25
2022-08-30T07:07:27.899Z,97362.53
2022-08-30T07:09:55.984Z,97325.88
2022-08-30T07:12:22.733Z,97316.72
2022-08-30T07:14:49.450Z,97315.91
2022-08-30T07:17:16.157Z,97357.50
2022-08-30T07:19:43.096Z,97324.31
2022-08-30T07:22:09.762Z,97321.72
2022-08-30T07:24:36.549Z,97309.47
2022-08-30T07:27:03.272Z,97328.63
2022-08-30T07:29:30.096Z,97336.09
2022-08-30T07:31:56.797Z,97356.22
2022-08-30T07:34:26.920Z,97336.53
2022-08-30T07:36:54.170Z,97359.69
2022-08-30T07:39:20.811Z,97368.19
2022-08-30T07:41:47.490Z,97345.84
2022-08-30T07:44:14.361Z,97344.31
2022-08-30T07:46:41.295Z,97335.72
2022-08-30T07:49:11.305Z,97346.91
2022-08-30T07:51:38.860Z,97329.31
2022-08-30T07:54:05.606Z,97324.03
2022-08-30T07:56:32.240Z,97324.66
2022-08-30T07:58:58.928Z,97343.00
2022-08-30T08:01:25.646Z,97342.38
2022-08-30T08:03:52.441Z,97343.66
2022-08-30T08:06:20.412Z,97354.81
2022-08-30T08:08:47.203Z,97337.31
2022-08-30T08:11:16.633Z,97342.47
2022-08-30T08:13:53.108Z,97348.88
2022-08-30T08:16:26.053Z,97316.09
2022-08-30T08:18:53.353Z,97354.09
2022-08-30T08:21:20.780Z,97348.16
2022-08-30T08:23:47.515Z,97335.44
2022-08-30T08:26:14.364Z,97312.88
2022-08-30T08:28:41.056Z,97351.63
2022-08-30T08:31:37.142Z,97379.59
2022-08-30T08:34:04.150Z,97324.25
2022-08-30T08:36:31.188Z,97344.34
2022-08-30T08:38:58.193Z,97328.44
2022-08-30T08:41:34.050Z,97345.78
2022-08-30T08:44:01.020Z,97314.66
2022-08-30T08:46:45.459Z,97334.22
2022-08-30T08:49:12.515Z,97320.25
2022-08-30T08:51:39.592Z,97317.28
2022-08-30T08:54:14.880Z,97332.03
2022-08-30T08:56:41.855Z,97302.28
2022-08-30T08:59:09.329Z,97316.28
2022-08-30T09:01:36.071Z,97324.34
2022-08-30T09:04:07.184Z,97323.09
2022-08-30T09:06:48.830Z,97310.50
2022-08-30T09:09:16.836Z,97321.91
2022-08-30T09:11:44.390Z,97330.50
2022-08-30T09:14:17.778Z,97325.31
2022-08-30T09:16:48.568Z,97305.44
2022-08-30T09:19:34.297Z,97290.94
2022-08-30T09:22:12.266Z,97276.09
2022-08-30T09:24:44.394Z,97294.47
2022-08-30T09:27:24.057Z,97309.28
2022-08-30T09:30:14.378Z,97297.81
2022-08-30T09:32:50.687Z,97309.38
2022-08-30T09:35:25.374Z,97332.16
2022-08-30T09:37:58.454Z,97293.28
2022-08-30T09:40:49.903Z,97312.72
2022-08-30T09:43:16.409Z,97304.53
2022-08-30T09:46:03.362Z,97300.13
2022-08-30T09:48:33.268Z,97302.63
2022-08-30T09:51:07.981Z,97302.28
2022-08-30T09:53:35.947Z,97277.63
2022-08-30T09:56:12.106Z,97275.44
2022-08-30T09:59:18.868Z,97288.03
2022-08-30T10:01:53.349Z,97297.22
2022-08-30T10:04:38.478Z,97288.19
2022-08-30T10:07:07.169Z,97297.75
2022-08-30T10:09:56.692Z,97278.50
2022-08-30T10:13:02.680Z,97267.47
2022-08-30T10:15:43.629Z,97266.69
2022-08-30T10:18:35.900Z,97280.44
2022-08-30T10:21:17.060Z,97266.91
2022-08-30T10:23:56.656Z,97264.81
2022-08-30T10:26:42.391Z,97256.50
2022-08-30T10:29:16.072Z,97262.94
2022-08-30T10:32:04.831Z,97275.41
2022-08-30T10:34:39.568Z,97255.16
2022-08-30T10:37:19.172Z,97263.41
2022-08-30T10:39:47.461Z,97250.69
2022-08-30T10:42:25.460Z,97233.22
2022-08-30T10:44:58.022Z,97270.22
2022-08-30T10:47:42.344Z,97255.22
2022-08-30T10:50:30.010Z,97246.56
2022-08-30T10:53:19.677Z,97249.69
2022-08-30T10:55:50.380Z,97227.88
2022-08-30T10:58:17.116Z,97226.72
2022-08-30T11:01:05.987Z,97233.00
2022-08-30T11:03:46.837Z,97241.22
2022-08-30T11:06:23.652Z,97242.78
2022-08-30T11:09:17.651Z,97220.22
2022-08-30T11:11:55.419Z,97231.28
2022-08-30T11:14:25.472Z,97229.56
2022-08-30T11:16:53.321Z,97234.66
2022-08-30T11:19:26.351Z,97205.59
2022-08-30T11:22:23.361Z,97216.25
2022-08-30T11:25:10.087Z,97208.72
2022-08-30T11:27:55.659Z,97217.94
2022-08-30T11:30:26.454Z,97187.38
2022-08-30T11:32:58.778Z,97197.94
2022-08-30T11:38:27.076Z,97225.25
2022-08-30T11:40:56.595Z,97219.00
2022-08-30T11:43:36.835Z,97190.13
2022-08-30T11:46:28.591Z,97186.16
2022-08-30T11:49:13.708Z,97191.22
2022-08-30T11:52:08.235Z,97190.81
2022-08-30T11:55:07.507Z,97211.88
2022-08-30T11:57:49.747Z,97188.59
2022-08-30T12:00:37.587Z,97205.53
2022-08-30T12:03:27.378Z,97190.28
2022-08-30T12:06:06.002Z,97221.16
2022-08-30T12:08:32.573Z,97181.94
2022-08-30T12:11:02.084Z,97177.16
2022-08-30T12:13:34.681Z,97183.03
2022-08-30T12:16:03.430Z,97184.97
2022-08-30T12:18:36.859Z,97186.19
2022-08-30T12:21:17.923Z,97189.22
2022-08-30T12:24:05.562Z,97195.22
2022-08-30T12:26:41.264Z,97178.16
2022-08-30T12:29:07.894Z,97199.44
2022-08-30T12:31:42.189Z,97182.88
2022-08-30T12:34:09.091Z,97186.16
2022-08-30T12:36:48.164Z,97152.47
2022-08-30T12:39:21.549Z,97167.91
2022-08-30T12:41:48.193Z,97167.84
2022-08-30T12:44:33.737Z,97183.28
2022-08-30T12:47:02.946Z,97162.03
2022-08-30T12:49:31.782Z,97149.50
2022-08-30T12:52:27.714Z,97147.66
2022-08-30T12:54:55.326Z,97148.06
2022-08-30T12:57:43.731Z,97172.63
2022-08-30T13:00:30.164Z,97130.25
2022-08-30T13:02:58.884Z,97159.09
2022-08-30T13:05:32.768Z,97138.53
2022-08-30T13:08:21.360Z,97145.25
2022-08-30T13:11:07.367Z,97154.69
2022-08-30T13:13:44.665Z,97145.56
2022-08-30T13:16:18.464Z,97131.38
2022-08-30T13:18:49.231Z,97139.31
2022-08-30T13:21:29.363Z,97146.03
2022-08-30T13:24:03.991Z,97140.09
2022-08-30T13:26:37.639Z,97160.25
2022-08-30T13:29:10.406Z,97137.75
2022-08-30T13:31:37.392Z,97137.75
2022-08-30T13:34:04.173Z,97155.53
2022-08-30T13:36:46.755Z,97095.84
2022-08-30T13:39:13.965Z,97145.28
2022-08-30T13:41:40.714Z,97147.34
2022-08-30T13:44:11.901Z,97154.06
2022-08-30T13:46:40.271Z,97131.16
2022-08-30T13:52:19.446Z,97153.22
2022-08-30T13:54:44.647Z,97127.16
2022-08-30T13:57:11.330Z,97094.00
2022-08-30T13:59:37.944Z,97135.06
2022-08-30T14:02:08.162Z,97109.41
2022-08-30T14:04:35.193Z,97122.84
2022-08-30T14:07:20.366Z,97111.34
2022-08-30T14:09:47.710Z,97099.47
2022-08-30T14:12:14.651Z,97105.38
2022-08-30T14:14:43.219Z,97117.19
2022-08-30T14:17:11.012Z,97112.03
2022-08-30T14:19:39.338Z,97102.56
2022-08-30T14:22:05.965Z,97110.47
2022-08-30T14:24:32.723Z,97106.50
2022-08-30T14:26:59.411Z,97096.22
2022-08-30T14:29:26.244Z,97098.25
2022-08-30T14:31:55.559Z,97097.88
2022-08-30T14:34:25.316Z,97110.53
2022-08-30T14:36:51.985Z,97086.88
2022-08-30T14:39:19.343Z,97080.97
2022-08-30T14:41:47.997Z,97096.00
2022-08-30T14:44:14.967Z,97083.72
2022-08-30T14:46:42.217Z,97086.91
2022-08-30T14:49:11.122Z,97065.59
2022-08-30T14:51:38.009Z,97098.75
2022-08-30T14:54:04.818Z,97082.56
2022-08-30T14:56:32.482Z,97086.50
2022-08-30T14:58:59.283Z,97096.34
2022-08-30T15:01:26.631Z,97090.00
2022-08-30T15:03:53.755Z,97094.69
2022-08-30T15:06:22.289Z,97101.38
2022-08-30T15:08:49.264Z,97081.19
2022-08-30T15:11:17.303Z,97113.13
2022-08-30T15:13:44.036Z,97094.13
2022-08-30T15:16:12.225Z,97082.63
2022-08-30T15:18:39.261Z,97096.06
2022-08-30T15:21:08.574Z,97070.38
2022-08-30T15:23:35.302Z,97083.44
2022-08-30T15:26:01.953Z,97075.50
2022-08-30T15:28:28.934Z,97070.00
2022-08-30T15:30:55.751Z,97077.97
2022-08-30T15:33:23.335Z,97069.31
2022-08-30T15:35:51.809Z,97064.22
2022-08-30T15:38:19.340Z,97049.22
2022-08-30T15:40:49.275Z,97043.34
2022-08-30T15:43:16.306Z,97054.38
2022-08-30T15:45:43.176Z,97048.44
2022-08-30T15:48:09.922Z,97039.78
2022-08-30T15:50:36.678Z,97035.47
2022-08-30T15:53:03.628Z,97043.75
2022-08-30T15:55:30.241Z,97063.13
2022-08-30T15:57:57.297Z,97039.03
2022-08-30T16:00:23.968Z,97036.25
2022-08-30T16:02:50.742Z,97056.34
2022-08-30T16:05:19.269Z,97036.56
2022-08-30T16:07:45.912Z,97055.06
2022-08-30T16:10:13.930Z,97019.53
2022-08-30T16:12:40.764Z,97046.75
2022-08-30T16:15:08.112Z,97043.19
2022-08-30T16:17:34.700Z,97047.88
2022-08-30T16:20:03.736Z,97017.13
2022-08-30T16:22:30.447Z,97049.41
2022-08-30T16:24:57.126Z,97036.00
2022-08-30T16:27:23.881Z,97040.66
2022-08-30T16:29:50.684Z,97001.25
2022-08-30T16:32:17.772Z,97014.59
2022-08-30T16:34:45.162Z,97039.03
2022-08-30T16:37:11.847Z,97021.56
2022-08-30T16:39:38.660Z,97031.72
2022-08-30T16:42:06.675Z,97017.44
2022-08-30T16:44:33.553Z,97017.31
2022-08-30T16:47:01.484Z,97015.31
2022-08-30T16:49:28.350Z,96999.81
2022-08-30T16:51:55.084Z,97019.81
2022-08-30T16:54:21.931Z,97016.81
2022-08-30T16:56:48.805Z,97008.38
2022-08-30T16:59:15.835Z,96999.97
2022-08-30T17:01:43.165Z,97004.59
2022-08-30T17:04:12.931Z,96993.41
2022-08-30T17:06:40.621Z,96996.34
2022-08-30T17:09:07.816Z,97008.81
2022-08-30T17:11:36.107Z,97084.91
2022-08-30T17:14:02.913Z,96997.97
2022-08-30T17:16:29.761Z,97027.03
2022-08-30T17:18:59.824Z,96998.25
2022-08-30T17:21:45.327Z,97006.81
2022-08-30T17:24:12.033Z,97027.00
2022-08-30T17:26:38.722Z,96998.09
2022-08-30T17:29:05.790Z,97011.63
2022-08-30T17:31:34.865Z,97000.66
2022-08-30T17:34:03.489Z,96978.47
2022-08-30T17:36:31.812Z,97015.78
2022-08-30T17:38:58.465Z,97011.94
2022-08-30T17:41:25.460Z,97039.19
2022-08-30T17:43:52.331Z,97053.03
2022-08-30T17:46:20.097Z,97028.41
2022-08-30T17:48:47.572Z,97050.34
2022-08-30T17:51:24.609Z,97045.72
2022-08-30T17:53:51.440Z,97040.97
2022-08-30T17:56:19.021Z,97060.72
2022-08-30T17:58:47.544Z,97046.63
2022-08-30T18:01:14.642Z,97067.41
2022-08-30T18:03:41.446Z,97049.47
2022-08-30T18:06:12.381Z,97046.31
2022-08-30T18:08:39.117Z,97034.66
2022-08-30T18:11:06.224Z,97052.50
2022-08-30T18:13:33.082Z,97060.53
2022-08-30T18:16:02.139Z,97069.03
2022-08-30T18:18:29.450Z,97069.09
2022-08-30T18:20:56.500Z,97079.88
2022-08-30T18:23:24.040Z,97073.84
2022-08-30T18:25:59.226Z,97085.59
2022-08-30T18:28:25.978Z,97086.88
2022-08-30T18:30:53.435Z,97088.41
2022-08-30T18:33:20.437Z,97103.91
2022-08-30T18:35:48.730Z,97095.94
2022-08-30T18:38:15.476Z,97114.28
2022-08-30T18:40:42.304Z,97090.94
2022-08-30T18:43:10.507Z,97095.06
2022-08-30T18:45:37.851Z,97123.53
2022-08-30T18:48:05.060Z,97110.81
2022-08-30T18:50:32.277Z,97104.47
2022-08-30T18:52:59.442Z,97107.53
2022-08-30T18:55:26.446Z,97113.16
2022-08-30T18:57:53.183Z,97164.75
2022-08-30T19:00:21.086Z,97120.25
2022-08-30T19:02:47.807Z,97118.66
2022-08-30T19:05:15.470Z,97115.91
2022-08-30T19:07:45.891Z,97108.66
2022-08-30T19:10:13.984Z,97120.03
2022-08-30T19:12:40.805Z,97111.94
2022-08-30T19:15:11.028Z,97109.09
2022-08-30T19:17:39.939Z,97123.25
2022-08-30T19:20:09.265Z,97116.69
2022-08-30T19:23:06.345Z,97122.72
2022-08-30T19:25:23.695Z,97109.53
2022-08-30T19:27:50.627Z,97116.34
2022-08-30T19:30:28.857Z,97133.19
2022-08-30T19:32:56.426Z,97110.91
2022-08-30T19:35:23.136Z,97095.09
2022-08-30T19:37:51.000Z,97107.34
2022-08-30T19:40:18.381Z,97096.06
2022-08-30T19:42:46.531Z,97102.19
2022-08-30T19:45:14.341Z,97122.31
2022-08-30T19:47:41.091Z,97114.59
2022-08-30T19:50:08.364Z,97109.16
2022-08-30T19:52:36.411Z,97121.03
2022-08-30T19:55:04.808Z,97122.06
2022-08-30T19:57:31.527Z,97121.94
2022-08-30T19:59:58.259Z,97116.84
2022-08-30T20:02:25.186Z,97112.28
2022-08-30T20:04:53.893Z,97104.66
2022-08-30T20:07:25.105Z,97094.78
2022-08-30T20:09:54.200Z,97114.84
2022-08-30T20:12:21.113Z,97124.97
2022-08-30T20:14:47.889Z,97106.88
2022-08-30T20:17:14.884Z,97109.84
2022-08-30T20:19:41.830Z,97110.28
2022-08-30T20:22:08.614Z,97106.75
2022-08-30T20:27:07.320Z,97114.06
2022-08-30T20:29:33.955Z,97117.50
2022-08-30T20:32:00.620Z,97113.00
2022-08-30T20:34:27.294Z,97113.25
2022-08-30T20:36:55.344Z,97116.66
2022-08-30T20:39:22.515Z,97117.47
2022-08-30T20:41:49.341Z,97138.78
2022-08-30T20:44:16.813Z,97108.09
2022-08-30T20:46:44.589Z,97138.88
2022-08-30T20:49:11.649Z,97126.34
2022-08-30T20:51:38.440Z,97110.00
2022-08-30T20:54:06.238Z,97102.19
2022-08-30T20:56:32.914Z,97102.78
2022-08-30T20:58:59.605Z,97105.56
2022-08-30T21:01:26.318Z,97116.72
2022-08-30T21:03:53.270Z,97120.44
2022-08-30T21:06:20.017Z,97144.28
2022-08-30T21:08:46.751Z,97132.13
2022-08-30T21:11:13.685Z,97139.25
2022-08-30T21:13:40.360Z,97135.56
2022-08-30T21:16:07.181Z,97149.97
2022-08-30T21:18:34.714Z,97135.88
2022-08-30T21:21:18.354Z,97138.16
2022-08-30T21:23:45.070Z,97151.91
2022-08-30T21:26:11.816Z,97145.41
2022-08-30T21:28:38.473Z,97160.69
2022-08-30T21:31:05.979Z,97161.81
2022-08-30T21:33:32.735Z,97137.81
2022-08-30T21:35:59.398Z,97149.19
2022-08-30T21:38:26.172Z,97146.81
2022-08-30T21:40:52.900Z,97156.25
2022-08-30T21:43:19.561Z,97145.06
2022-08-30T21:45:46.292Z,97172.44
2022-08-30T21:48:13.736Z,97150.06
2022-08-30T21:50:41.411Z,97134.38
2022-08-30T21:53:08.048Z,97158.50
2022-08-30T21:55:34.773Z,97160.63
2022-08-30T21:58:01.400Z,97162.84
2022-08-30T22:00:30.721Z,97160.78
2022-08-30T22:02:57.635Z,97149.44
2022-08-30T22:05:24.382Z,97171.19
2022-08-30T22:07:51.154Z,97168.97
2022-08-30T22:10:17.761Z,97173.59
2022-08-30T22:12:44.392Z,97157.78
2022-08-30T22:15:11.314Z,97150.09
2022-08-30T22:17:37.958Z,97152.00
2022-08-30T22:20:05.780Z,97169.63
2022-08-30T22:22:32.691Z,97165.47
2022-08-30T22:24:59.343Z,97162.41
2022-08-30T22:27:26.060Z,97169.13
2022-08-30T22:29:52.710Z,97140.03
2022-08-30T22:32:19.489Z,97140.16
2022-08-30T22:34:46.324Z,97161.91
2022-08-30T22:37:12.961Z,97172.28
2022-08-30T22:39:39.611Z,97181.41
2022-08-30T22:42:06.654Z,97170.38
2022-08-30T22:44:33.361Z,97138.88
2022-08-30T22:47:00.805Z,97164.44
2022-08-30T22:49:27.582Z,97150.06
2022-08-30T22:51:54.406Z,97130.72
2022-08-30T22:54:21.468Z,97131.97
2022-08-30T22:56:48.125Z,97128.16
2022-08-30T22:59:15.058Z,97149.59
2022-08-30T23:01:41.801Z,97131.06
2022-08-30T23:04:08.628Z,97118.59
2022-08-30T23:06:35.422Z,97102.44
2022-08-30T23:09:02.133Z,97131.69
2022-08-30T23:11:30.551Z,97117.31
2022-08-30T23:14:00.624Z,97142.44
2022-08-30T23:16:27.251Z,97149.47
2022-08-30T23:18:53.987Z,97138.13
2022-08-30T23:21:22.599Z,97130.91
2022-08-30T23:23:50.302Z,97128.38
2022-08-30T23:26:16.970Z,97141.47
2022-08-30T23:28:43.603Z,97110.00
2022-08-30T23:31:15.628Z,97131.59
2022-08-30T23:33:42.314Z,97124.72
2022-08-30T23:36:13.754Z,97129.66
2022-08-30T23:38:40.551Z,97114.47
2022-08-30T23:41:07.184Z,97149.16
2022-08-30T23:43:33.875Z,97143.56
2022-08-30T23:46:00.654Z,97130.47
2022-08-30T23:48:27.552Z,97107.00
2022-08-30T23:50:54.236Z,97101.41
2022-08-30T23:53:20.919Z,97138.47
2022-08-30T23:55:48.016Z,97129.97
2022-08-30T23:58:14.629Z,97127.13
